createdAt,value
2024-04-22T00:01:34.144Z,100718.14
2024-04-22T00:04:01.904Z,100717.73
2024-04-22T00:06:29.603Z,100712.52
2024-04-22T00:08:57.831Z,100706.69
2024-04-22T00:11:25.345Z,100713.05
2024-04-22T00:13:52.790Z,100712.40
2024-04-22T00:16:20.254Z,100711.56
2024-04-22T00:18:47.774Z,100714.65
2024-04-22T00:21:15.639Z,100712.00
2024-04-22T00:23:43.116Z,100708.80
2024-04-22T00:26:10.553Z,100707.98
2024-04-22T00:28:38.744Z,100702.90
2024-04-22T00:31:06.369Z,100705.02
2024-04-22T00:33:33.915Z,100705.42
2024-04-22T00:36:01.921Z,100707.78
2024-04-22T00:38:30.789Z,100711.30
2024-04-22T00:40:59.216Z,100713.69
2024-04-22T00:43:26.731Z,100711.20
2024-04-22T00:45:54.343Z,100712.46
2024-04-22T00:48:23.889Z,100712.94
2024-04-22T00:50:53.880Z,100707.90
2024-04-22T00:53:21.821Z,100707.45
2024-04-22T00:55:50.520Z,100704.63
2024-04-22T00:58:19.435Z,100705.27
2024-04-22T01:00:48.404Z,100703.11
2024-04-22T01:03:16.802Z,100702.40
2024-04-22T01:05:44.342Z,100699.05
2024-04-22T01:08:11.798Z,100696.40
2024-04-22T01:10:39.335Z,100694.77
2024-04-22T01:13:06.976Z,100691.48
2024-04-22T01:15:34.586Z,100690.77
2024-04-22T01:18:02.136Z,100686.00
2024-04-22T01:20:29.652Z,100684.06
2024-04-22T01:22:57.101Z,100680.98
2024-04-22T01:25:27.177Z,100680.97
2024-04-22T01:27:54.694Z,100676.69
2024-04-22T01:30:22.139Z,100678.71
2024-04-22T01:32:49.658Z,100684.27
2024-04-22T01:35:17.444Z,100684.33
2024-04-22T01:37:45.006Z,100688.57
2024-04-22T01:40:13.287Z,100688.77
2024-04-22T01:42:40.742Z,100688.95
2024-04-22T01:45:08.412Z,100688.89
2024-04-22T01:47:35.892Z,100688.30
2024-04-22T01:50:03.569Z,100690.23
2024-04-22T01:52:31.078Z,100691.64
2024-04-22T01:54:58.609Z,100687.17
2024-04-22T01:57:26.029Z,100688.95
2024-04-22T01:59:53.510Z,100687.84
2024-04-22T02:02:20.975Z,100686.31
2024-04-22T02:04:48.459Z,100684.56
2024-04-22T02:07:15.905Z,100686.55
2024-04-22T02:09:43.322Z,100687.55
2024-04-22T02:12:10.774Z,100686.20
2024-04-22T02:14:40.194Z,100684.98
2024-04-22T02:17:07.664Z,100682.83
2024-04-22T02:19:35.307Z,100684.17
2024-04-22T02:22:02.811Z,100682.42
2024-04-22T02:24:30.345Z,100682.77
2024-04-22T02:26:57.771Z,100684.73
2024-04-22T02:29:25.201Z,100685.38
2024-04-22T02:31:52.680Z,100687.64
2024-04-22T02:34:20.089Z,100686.51
2024-04-22T02:36:47.484Z,100687.60
2024-04-22T02:39:14.931Z,100688.19
2024-04-22T02:41:42.556Z,100684.02
2024-04-22T02:44:10.003Z,100683.48
2024-04-22T02:46:37.438Z,100678.67
2024-04-22T02:49:04.864Z,100675.65
2024-04-22T02:51:32.372Z,100670.39
2024-04-22T02:53:59.816Z,100666.00
2024-04-22T02:56:27.314Z,100669.67
2024-04-22T02:58:56.913Z,100665.69
2024-04-22T03:01:24.920Z,100662.70
2024-04-22T03:03:52.491Z,100664.22
2024-04-22T03:06:20.009Z,100662.61
2024-04-22T03:08:50.885Z,100656.88
2024-04-22T03:11:18.358Z,100654.77
2024-04-22T03:13:47.870Z,100652.27
2024-04-22T03:16:16.964Z,100650.91
2024-04-22T03:18:47.560Z,100648.59
2024-04-22T03:21:15.137Z,100647.89
2024-04-22T03:23:42.569Z,100645.83
2024-04-22T03:26:11.522Z,100643.05
2024-04-22T03:28:39.216Z,100640.17
2024-04-22T03:31:07.263Z,100641.30
2024-04-22T03:33:34.898Z,100639.93
2024-04-22T03:36:03.572Z,100640.66
2024-04-22T03:38:31.086Z,100644.34
2024-04-22T03:40:58.496Z,100648.98
2024-04-22T03:43:25.933Z,100654.49
2024-04-22T03:46:12.290Z,100655.54
2024-04-22T03:48:58.320Z,100654.67
2024-04-22T03:51:26.086Z,100656.94
2024-04-22T03:53:53.554Z,100658.86
2024-04-22T03:56:21.041Z,100661.67
2024-04-22T03:58:48.521Z,100657.95
2024-04-22T04:01:17.239Z,100657.69
2024-04-22T04:03:44.871Z,100656.33
2024-04-22T04:06:12.429Z,100660.20
2024-04-22T04:08:39.925Z,100659.98
2024-04-22T04:11:14.169Z,100659.42
2024-04-22T04:13:45.640Z,100663.14
2024-04-22T04:16:13.225Z,100664.87
2024-04-22T04:18:42.565Z,100664.33
2024-04-22T04:21:10.070Z,100661.80
2024-04-22T04:23:37.557Z,100660.36
2024-04-22T04:26:05.089Z,100660.25
2024-04-22T04:28:32.537Z,100659.45
2024-04-22T04:31:01.234Z,100659.10
2024-04-22T04:33:28.936Z,100658.81
2024-04-22T04:36:03.981Z,100659.27
2024-04-22T04:38:32.562Z,100659.14
2024-04-22T04:41:00.930Z,100661.48
2024-04-22T04:43:31.223Z,100664.23
2024-04-22T04:45:59.114Z,100663.79
2024-04-22T04:48:27.496Z,100670.16
2024-04-22T04:50:55.258Z,100671.32
2024-04-22T04:53:22.942Z,100671.73
2024-04-22T04:55:50.566Z,100674.15
2024-04-22T04:58:18.968Z,100674.55
2024-04-22T05:00:47.153Z,100677.21
2024-04-22T05:03:15.391Z,100682.14
2024-04-22T05:05:42.910Z,100682.73
2024-04-22T05:08:10.379Z,100685.73
2024-04-22T05:10:37.987Z,100685.58
2024-04-22T05:13:05.602Z,100692.59
2024-04-22T05:15:33.096Z,100694.42
2024-04-22T05:18:00.640Z,100700.64
2024-04-22T05:20:31.026Z,100699.28
2024-04-22T05:22:58.606Z,100697.10
2024-04-22T05:25:26.326Z,100696.94
2024-04-22T05:27:54.122Z,100700.41
2024-04-22T05:30:22.559Z,100699.84
2024-04-22T05:32:50.170Z,100699.14
2024-04-22T05:35:36.564Z,100699.17
2024-04-22T05:38:04.215Z,100697.04
2024-04-22T05:40:31.709Z,100703.85
2024-04-22T05:42:59.181Z,100703.11
2024-04-22T05:45:26.944Z,100698.18
2024-04-22T05:47:54.577Z,100700.67
2024-04-22T05:50:22.273Z,100700.55
2024-04-22T05:52:49.722Z,100700.58
2024-04-22T05:55:17.241Z,100698.02
2024-04-22T05:57:47.208Z,100700.22
2024-04-22T06:00:16.207Z,100699.73
2024-04-22T06:02:43.669Z,100697.13
2024-04-22T06:05:11.211Z,100701.34
2024-04-22T06:07:39.020Z,100704.10
2024-04-22T06:10:06.957Z,100704.53
2024-04-22T06:12:34.358Z,100703.53
2024-04-22T06:15:01.806Z,100706.32
2024-04-22T06:17:29.317Z,100708.02
2024-04-22T06:19:56.777Z,100710.01
2024-04-22T06:22:24.326Z,100710.80
2024-04-22T06:24:52.824Z,100712.04
2024-04-22T06:27:20.296Z,100710.23
2024-04-22T06:29:48.956Z,100707.84
2024-04-22T06:32:16.665Z,100711.48
2024-04-22T06:34:44.308Z,100710.35
2024-04-22T06:37:11.930Z,100704.92
2024-04-22T06:39:39.586Z,100706.14
2024-04-22T06:42:07.133Z,100708.15
2024-04-22T06:44:34.571Z,100711.17
2024-04-22T06:47:03.549Z,100711.05
2024-04-22T06:49:31.168Z,100708.63
2024-04-22T06:51:58.632Z,100705.17
2024-04-22T06:54:26.070Z,100705.40
2024-04-22T06:56:53.535Z,100710.86
2024-04-22T06:59:20.999Z,100709.89
2024-04-22T07:01:48.463Z,100713.39
2024-04-22T07:04:16.667Z,100716.64
2024-04-22T07:06:44.586Z,100718.68
2024-04-22T07:09:14.017Z,100716.31
2024-04-22T07:11:41.604Z,100722.72
2024-04-22T07:14:12.761Z,100719.79
2024-04-22T07:16:41.569Z,100718.80
2024-04-22T07:19:09.254Z,100723.50
2024-04-22T07:21:36.718Z,100722.85
2024-04-22T07:24:04.380Z,100722.62
2024-04-22T07:26:31.837Z,100721.95
2024-04-22T07:28:59.566Z,100723.44
2024-04-22T07:31:27.330Z,100720.87
2024-04-22T07:33:55.125Z,100723.64
2024-04-22T07:36:29.981Z,100722.95
2024-04-22T07:39:01.392Z,100723.83
2024-04-22T07:41:29.491Z,100726.94
2024-04-22T07:43:57.075Z,100726.02
2024-04-22T07:46:25.532Z,100725.77
2024-04-22T07:48:53.001Z,100722.23
2024-04-22T07:51:20.427Z,100724.58
2024-04-22T07:53:48.177Z,100726.19
2024-04-22T07:56:18.238Z,100721.77
2024-04-22T07:58:46.186Z,100720.40
2024-04-22T08:01:14.705Z,100720.90
2024-04-22T08:03:43.019Z,100723.45
2024-04-22T08:06:17.536Z,100726.04
2024-04-22T08:08:45.238Z,100722.08
2024-04-22T08:11:13.218Z,100718.41
2024-04-22T08:13:40.852Z,100725.79
2024-04-22T08:16:08.350Z,100724.19
2024-04-22T08:18:35.876Z,100724.80
2024-04-22T08:21:03.555Z,100724.75
2024-04-22T08:23:32.003Z,100728.09
2024-04-22T08:25:59.605Z,100724.63
2024-04-22T08:28:27.353Z,100723.95
2024-04-22T08:31:06.251Z,100720.23
2024-04-22T08:33:34.096Z,100719.56
2024-04-22T08:36:02.107Z,100719.65
2024-04-22T08:38:29.948Z,100718.80
2024-04-22T08:40:57.853Z,100725.45
2024-04-22T08:43:25.507Z,100724.34
2024-04-22T08:45:53.038Z,100731.13
2024-04-22T08:48:20.663Z,100724.38
2024-04-22T08:50:51.531Z,100723.77
2024-04-22T08:53:20.204Z,100718.05
2024-04-22T08:55:48.018Z,100722.60
2024-04-22T08:58:16.127Z,100730.83
2024-04-22T09:00:43.958Z,100727.47
2024-04-22T09:03:11.533Z,100730.33
2024-04-22T09:05:40.169Z,100733.20
2024-04-22T09:08:10.000Z,100737.92
2024-04-22T09:11:11.648Z,100741.91
2024-04-22T09:13:29.040Z,100746.87
2024-04-22T09:15:57.249Z,100749.29
2024-04-22T09:18:29.960Z,100752.66
2024-04-22T09:21:07.252Z,100754.00
2024-04-22T09:23:35.943Z,100755.73
2024-04-22T09:26:03.995Z,100759.46
2024-04-22T09:28:35.581Z,100760.17
2024-04-22T09:31:04.831Z,100759.04
2024-04-22T09:33:36.753Z,100763.16
2024-04-22T09:36:05.787Z,100769.77
2024-04-22T09:38:43.752Z,100769.45
2024-04-22T09:41:16.716Z,100776.19
2024-04-22T09:43:49.952Z,100778.27
2024-04-22T09:46:21.215Z,100781.40
2024-04-22T09:48:49.279Z,100783.13
2024-04-22T09:51:18.955Z,100780.70
2024-04-22T09:53:47.132Z,100781.20
2024-04-22T09:56:21.816Z,100783.48
2024-04-22T09:58:49.625Z,100786.42
2024-04-22T10:01:17.480Z,100784.33
2024-04-22T10:03:45.318Z,100781.06
2024-04-22T10:06:14.200Z,100785.06
2024-04-22T10:08:41.827Z,100787.52
2024-04-22T10:11:12.092Z,100789.20
2024-04-22T10:13:40.201Z,100791.13
2024-04-22T10:16:13.904Z,100794.10
2024-04-22T10:18:48.900Z,100794.81
2024-04-22T10:21:16.740Z,100798.27
2024-04-22T10:23:44.738Z,100796.16
2024-04-22T10:26:19.708Z,100802.71
2024-04-22T10:28:48.121Z,100804.52
2024-04-22T10:31:23.067Z,100803.71
2024-04-22T10:33:51.250Z,100800.64
2024-04-22T10:36:19.006Z,100801.22
2024-04-22T10:38:46.443Z,100805.14
2024-04-22T10:41:14.933Z,100797.45
2024-04-22T10:43:45.306Z,100801.66
2024-04-22T10:46:13.024Z,100807.52
2024-04-22T10:48:41.156Z,100806.39
2024-04-22T10:51:11.140Z,100804.80
2024-04-22T10:53:38.627Z,100805.13
2024-04-22T10:56:06.983Z,100807.60
2024-04-22T10:58:35.274Z,100805.55
2024-04-22T11:01:04.079Z,100805.46
2024-04-22T11:03:31.823Z,100804.66
2024-04-22T11:06:00.670Z,100806.21
2024-04-22T11:08:29.437Z,100807.23
2024-04-22T11:10:58.346Z,100810.63
2024-04-22T11:13:26.169Z,100812.53
2024-04-22T11:15:53.689Z,100813.95
2024-04-22T11:18:22.086Z,100812.77
2024-04-22T11:20:49.785Z,100817.19
2024-04-22T11:23:17.269Z,100814.07
2024-04-22T11:25:44.820Z,100818.19
2024-04-22T11:28:12.459Z,100818.92
2024-04-22T11:30:42.403Z,100818.24
2024-04-22T11:33:11.945Z,100813.27
2024-04-22T11:35:39.518Z,100816.14
2024-04-22T11:38:28.867Z,100820.80
2024-04-22T11:40:56.379Z,100822.02
2024-04-22T11:43:24.001Z,100820.94
2024-04-22T11:45:53.332Z,100826.93
2024-04-22T11:48:20.875Z,100824.75
2024-04-22T11:50:48.680Z,100825.67
2024-04-22T11:53:23.546Z,100829.38
2024-04-22T11:55:54.922Z,100833.17
2024-04-22T11:58:25.598Z,100834.52
2024-04-22T12:00:53.162Z,100835.67
2024-04-22T12:03:20.699Z,100837.66
2024-04-22T12:05:48.341Z,100838.97
2024-04-22T12:08:15.904Z,100837.83
2024-04-22T12:10:43.460Z,100836.80
2024-04-22T12:13:10.925Z,100838.80
2024-04-22T12:15:39.065Z,100839.06
2024-04-22T12:18:06.678Z,100836.42
2024-04-22T12:20:34.158Z,100833.34
2024-04-22T12:23:01.598Z,100831.48
2024-04-22T12:25:29.117Z,100825.04
2024-04-22T12:28:02.187Z,100824.72
2024-04-22T12:30:33.430Z,100822.93
2024-04-22T12:33:00.990Z,100825.11
2024-04-22T12:35:28.463Z,100825.29
2024-04-22T12:37:55.990Z,100822.06
2024-04-22T12:40:23.671Z,100825.81
2024-04-22T12:42:51.534Z,100822.48
2024-04-22T12:45:18.975Z,100823.73
2024-04-22T12:48:05.297Z,100825.48
2024-04-22T12:50:46.132Z,100824.97
2024-04-22T12:53:13.774Z,100825.70
2024-04-22T12:55:41.600Z,100826.59
2024-04-22T12:58:09.091Z,100826.37
2024-04-22T13:00:36.986Z,100827.34
2024-04-22T13:03:05.036Z,100824.75
2024-04-22T13:05:32.759Z,100824.56
2024-04-22T13:08:00.474Z,100826.25
2024-04-22T13:10:28.192Z,100828.41
2024-04-22T13:12:55.754Z,100826.00
2024-04-22T13:15:23.218Z,100830.70
2024-04-22T13:17:51.457Z,100827.29
2024-04-22T13:20:19.001Z,100826.98
2024-04-22T13:22:46.836Z,100832.13
2024-04-22T13:25:14.608Z,100833.60
2024-04-22T13:27:42.807Z,100837.61
2024-04-22T13:30:13.600Z,100838.27
2024-04-22T13:32:44.410Z,100833.23
2024-04-22T13:35:11.987Z,100834.90
2024-04-22T13:37:42.218Z,100838.49
2024-04-22T13:40:10.961Z,100837.81
2024-04-22T13:42:42.528Z,100839.91
2024-04-22T13:45:13.212Z,100843.61
2024-04-22T13:47:40.905Z,100842.31
2024-04-22T13:50:08.603Z,100844.81
2024-04-22T13:52:37.293Z,100841.19
2024-04-22T13:55:06.741Z,100845.89
2024-04-22T13:57:38.651Z,100845.71
2024-04-22T14:00:09.581Z,100852.21
2024-04-22T14:02:38.813Z,100857.57
2024-04-22T14:05:06.445Z,100850.91
2024-04-22T14:07:34.003Z,100850.55
2024-04-22T14:10:04.914Z,100851.35
2024-04-22T14:12:34.673Z,100849.90
2024-04-22T14:15:02.152Z,100852.47
2024-04-22T14:17:30.410Z,100856.78
2024-04-22T14:19:58.164Z,100862.05
2024-04-22T14:22:25.981Z,100862.15
2024-04-22T14:24:53.471Z,100862.66
2024-04-22T14:27:20.894Z,100863.18
2024-04-22T14:29:48.379Z,100862.21
2024-04-22T14:32:15.886Z,100861.67
2024-04-22T14:34:43.698Z,100866.73
2024-04-22T14:37:11.896Z,100866.19
2024-04-22T14:39:39.868Z,100871.45
2024-04-22T14:42:07.381Z,100875.21
2024-04-22T14:44:39.122Z,100876.02
2024-04-22T14:47:08.538Z,100883.71
2024-04-22T14:49:36.074Z,100891.16
2024-04-22T14:52:04.196Z,100893.64
2024-04-22T14:54:31.675Z,100896.96
2024-04-22T14:56:59.188Z,100897.81
2024-04-22T14:59:26.674Z,100897.37
2024-04-22T15:01:54.464Z,100902.99
2024-04-22T15:04:22.304Z,100901.05
2024-04-22T15:06:51.394Z,100902.58
2024-04-22T15:09:18.936Z,100900.44
2024-04-22T15:11:46.651Z,100900.91
2024-04-22T15:14:14.279Z,100901.98
2024-04-22T15:16:41.828Z,100903.65
2024-04-22T15:19:09.337Z,100907.11
2024-04-22T15:21:36.785Z,100904.54
2024-04-22T15:24:04.383Z,100907.14
2024-04-22T15:26:31.849Z,100909.91
2024-04-22T15:28:59.363Z,100911.53
2024-04-22T15:31:27.017Z,100912.73
2024-04-22T15:33:54.671Z,100913.75
2024-04-22T15:36:23.022Z,100912.69
2024-04-22T15:38:50.530Z,100910.30
2024-04-22T15:41:17.997Z,100910.65
2024-04-22T15:43:45.517Z,100911.30
2024-04-22T15:46:13.110Z,100910.58
2024-04-22T15:48:40.663Z,100912.13
2024-04-22T15:51:08.527Z,100910.05
2024-04-22T15:53:36.013Z,100910.04
2024-04-22T15:56:04.991Z,100908.58
2024-04-22T15:58:32.524Z,100909.45
2024-04-22T16:01:00.030Z,100914.09
2024-04-22T16:03:31.762Z,100918.45
2024-04-22T16:05:59.510Z,100916.73
2024-04-22T16:08:27.723Z,100918.95
2024-04-22T16:10:55.265Z,100917.42
2024-04-22T16:13:22.963Z,100920.96
2024-04-22T16:15:50.568Z,100920.02
2024-04-22T16:18:18.536Z,100920.79
2024-04-22T16:20:53.519Z,100922.81
2024-04-22T16:23:31.408Z,100923.06
2024-04-22T16:26:02.111Z,100920.30
2024-04-22T16:28:29.599Z,100918.35
2024-04-22T16:30:57.104Z,100920.94
2024-04-22T16:33:27.106Z,100921.83
2024-04-22T16:35:54.599Z,100919.65
2024-04-22T16:38:22.071Z,100921.83
2024-04-22T16:40:49.681Z,100919.55
2024-04-22T16:43:21.028Z,100923.23
2024-04-22T16:45:48.990Z,100924.20
2024-04-22T16:48:18.388Z,100924.97
2024-04-22T16:50:46.641Z,100930.67
2024-04-22T16:53:14.135Z,100933.02
2024-04-22T16:55:48.053Z,100936.69
2024-04-22T16:58:15.829Z,100933.45
2024-04-22T17:00:43.295Z,100933.91
2024-04-22T17:03:10.752Z,100938.77
2024-04-22T17:05:38.210Z,100941.37
2024-04-22T17:08:05.873Z,100945.13
2024-04-22T17:10:33.325Z,100945.64
2024-04-22T17:13:01.409Z,100945.40
2024-04-22T17:15:28.983Z,100945.12
2024-04-22T17:17:56.960Z,100951.13
2024-04-22T17:20:24.470Z,100951.68
2024-04-22T17:22:52.165Z,100952.48
2024-04-22T17:25:19.852Z,100957.14
2024-04-22T17:27:48.626Z,100957.46
2024-04-22T17:30:16.113Z,100960.30
2024-04-22T17:32:43.703Z,100965.73
2024-04-22T17:35:11.152Z,100968.55
2024-04-22T17:37:38.701Z,100970.67
2024-04-22T17:40:06.869Z,100972.58
2024-04-22T17:42:34.368Z,100973.26
2024-04-22T17:45:01.920Z,100977.71
2024-04-22T17:47:29.413Z,100977.34
2024-04-22T17:49:57.931Z,100977.64
2024-04-22T17:52:26.145Z,100977.65
2024-04-22T17:54:53.620Z,100983.27
2024-04-22T17:57:22.453Z,100982.92
2024-04-22T17:59:49.938Z,100984.17
2024-04-22T18:02:17.514Z,100992.24
2024-04-22T18:04:45.086Z,100997.63
2024-04-22T18:07:12.667Z,101001.77
2024-04-22T18:09:43.222Z,101003.88
2024-04-22T18:12:10.900Z,101009.95
2024-04-22T18:14:38.282Z,101009.65
2024-04-22T18:17:05.866Z,101011.40
2024-04-22T18:19:34.003Z,101015.06
2024-04-22T18:22:07.629Z,101019.13
2024-04-22T18:24:41.174Z,101021.80
2024-04-22T18:27:08.641Z,101023.55
2024-04-22T18:29:36.069Z,101021.62
2024-04-22T18:32:03.670Z,101027.64
2024-04-22T18:34:32.423Z,101026.48
2024-04-22T18:36:59.857Z,101026.38
2024-04-22T18:39:27.466Z,101029.60
2024-04-22T18:41:54.906Z,101028.04
2024-04-22T18:44:24.883Z,101029.25
2024-04-22T18:46:52.959Z,101029.38
2024-04-22T18:49:20.560Z,101032.56
2024-04-22T18:51:48.040Z,101033.56
2024-04-22T18:54:16.161Z,101033.20
2024-04-22T18:56:43.589Z,101036.71
2024-04-22T18:59:10.997Z,101032.92
2024-04-22T19:01:38.591Z,101031.54
2024-04-22T19:04:06.227Z,101029.69
2024-04-22T19:06:33.799Z,101026.90
2024-04-22T19:09:01.416Z,101025.23
2024-04-22T19:11:29.347Z,101024.95
2024-04-22T19:13:56.839Z,101023.48
2024-04-22T19:16:24.301Z,101026.79
2024-04-22T19:18:53.312Z,101025.13
2024-04-22T19:21:20.745Z,101029.24
2024-04-22T19:23:53.092Z,101029.22
2024-04-22T19:26:20.635Z,101032.70
2024-04-22T19:28:48.151Z,101031.38
2024-04-22T19:31:15.966Z,101030.88
2024-04-22T19:33:43.436Z,101027.55
2024-04-22T19:36:11.055Z,101032.95
2024-04-22T19:38:38.549Z,101029.38
2024-04-22T19:41:06.000Z,101026.23
2024-04-22T19:43:33.612Z,101027.55
2024-04-22T19:46:01.187Z,101027.95
2024-04-22T19:48:28.805Z,101029.38
2024-04-22T19:50:56.257Z,101025.33
2024-04-22T19:53:23.995Z,101021.83
2024-04-22T19:55:51.602Z,101024.81
2024-04-22T19:58:20.630Z,101024.47
2024-04-22T20:00:48.334Z,101022.61
2024-04-22T20:03:15.920Z,101020.72
2024-04-22T20:05:45.311Z,101018.67
2024-04-22T20:08:13.603Z,101028.00
2024-04-22T20:10:41.710Z,101031.47
2024-04-22T20:13:10.735Z,101036.30
2024-04-22T20:16:04.288Z,101035.70
2024-04-22T20:18:42.261Z,101034.54
2024-04-22T20:21:09.885Z,101038.29
2024-04-22T20:23:37.297Z,101033.60
2024-04-22T20:26:05.283Z,101034.39
2024-04-22T20:28:33.255Z,101030.39
2024-04-22T20:31:02.213Z,101031.17
2024-04-22T20:33:29.769Z,101035.33
2024-04-22T20:35:57.496Z,101036.34
2024-04-22T20:38:25.092Z,101042.52
2024-04-22T20:41:00.290Z,101040.14
2024-04-22T20:43:30.154Z,101039.14
2024-04-22T20:46:01.661Z,101042.54
2024-04-22T20:48:37.549Z,101045.20
2024-04-22T20:51:06.132Z,101046.92
2024-04-22T20:53:34.430Z,101048.06
2024-04-22T20:56:03.540Z,101055.73
2024-04-22T20:58:32.787Z,101060.65
2024-04-22T21:01:02.355Z,101063.48
2024-04-22T21:03:30.358Z,101063.14
2024-04-22T21:05:59.673Z,101068.76
2024-04-22T21:08:28.473Z,101069.39
2024-04-22T21:10:59.551Z,101069.00
2024-04-22T21:13:27.209Z,101069.02
2024-04-22T21:15:54.884Z,101069.27
2024-04-22T21:18:22.596Z,101069.68
2024-04-22T21:20:50.272Z,101069.38
2024-04-22T21:23:17.816Z,101067.49
2024-04-22T21:25:45.374Z,101069.39
2024-04-22T21:28:13.007Z,101069.16
2024-04-22T21:30:40.433Z,101070.38
2024-04-22T21:35:38.402Z,101078.02
2024-04-22T21:38:05.929Z,101075.49
2024-04-22T21:40:33.473Z,101078.23
2024-04-22T21:43:00.977Z,101083.89
2024-04-22T21:45:28.404Z,101082.41
2024-04-22T21:47:55.850Z,101080.34
2024-04-22T21:50:23.384Z,101084.84
2024-04-22T21:52:50.949Z,101085.46
2024-04-22T21:55:23.953Z,101079.00
2024-04-22T21:58:29.831Z,101082.26
2024-04-22T22:01:35.091Z,101080.02
2024-04-22T22:04:40.180Z,101083.11
2024-04-22T22:07:20.713Z,101086.67
2024-04-22T22:09:49.364Z,101084.96
2024-04-22T22:12:20.550Z,101086.09
2024-04-22T22:14:50.395Z,101083.67
2024-04-22T22:17:21.001Z,101080.43
2024-04-22T22:19:50.231Z,101081.98
2024-04-22T22:22:18.252Z,101080.41
2024-04-22T22:24:46.222Z,101083.13
2024-04-22T22:27:15.307Z,101079.27
2024-04-22T22:29:43.275Z,101077.70
2024-04-22T22:32:11.123Z,101077.84
2024-04-22T22:34:38.703Z,101080.48
2024-04-22T22:37:07.574Z,101077.17
2024-04-22T22:39:35.314Z,101077.55
2024-04-22T22:42:02.931Z,101076.73
2024-04-22T22:44:30.383Z,101079.90
2024-04-22T22:47:02.391Z,101077.87
2024-04-22T22:49:30.273Z,101075.24
2024-04-22T22:51:57.736Z,101077.89
2024-04-22T22:54:25.253Z,101080.83
2024-04-22T22:56:59.816Z,101073.94
2024-04-22T22:59:28.479Z,101073.41
2024-04-22T23:01:57.800Z,101069.17
2024-04-22T23:04:25.438Z,101066.31
2024-04-22T23:06:53.321Z,101064.88
2024-04-22T23:09:20.744Z,101064.47
2024-04-22T23:11:48.203Z,101062.48
2024-04-22T23:14:15.726Z,101063.40
2024-04-22T23:16:49.212Z,101066.06
2024-04-22T23:19:16.733Z,101069.73
2024-04-22T23:21:44.182Z,101073.13
2024-04-22T23:24:11.719Z,101074.02
2024-04-22T23:26:51.797Z,101075.34
2024-04-22T23:29:19.265Z,101073.13
2024-04-22T23:31:46.770Z,101068.74
2024-04-22T23:34:14.247Z,101066.98
2024-04-22T23:36:48.954Z,101066.06
2024-04-22T23:39:17.516Z,101066.44
2024-04-22T23:41:45.062Z,101068.28
2024-04-22T23:44:13.122Z,101071.92
2024-04-22T23:46:53.632Z,101067.64
2024-04-22T23:49:22.064Z,101066.52
2024-04-22T23:51:49.676Z,101059.55
2024-04-22T23:54:17.273Z,101061.31
2024-04-22T23:56:44.981Z,101057.59
2024-04-22T23:59:12.896Z,101052.05
